Terminal Aerodrome Forecast
Issued by NWS Louisville, KY

Home | Current Version | Previous Version | Text Only | Print | Product List | Glossary On
Versions: 1 2 3 4 5 6 7 8 9 10 11 12 13 14 15 16 17 18 19 20 21 22 23 24 25 26 27
000
FTUS43 KLMK 301100
TAFSDF
TAF
KSDF 301138Z 3012/0118 VRB05KT P6SM BKN250
     FM301400 24010KT P6SM FEW040
     FM301600 25011G16KT P6SM VCTS SCT040CB BKN250
      TEMPO 3020/3023 VRB20G30KT 3SM TSRA BKN040CB
     FM010000 VRB05KT P6SM FEW050 SCT250=

USA.gov is the U.S. government's official web portal to all federal, state and local government web resources and services.